sensor_id;sensor_type;location;lat;lon;timestamp;P1;durP1;ratioP1;P2;durP2;ratioP2
36827;SDS011;22766;48.042;11.192;2023-05-14T00:00:00;5.03;;;2.88;;
36827;SDS011;22766;48.042;11.192;2023-05-14T00:02:26;7.00;;;3.03;;
36827;SDS011;22766;48.042;11.192;2023-05-14T00:04:53;4.82;;;2.90;;
36827;SDS011;22766;48.042;11.192;2023-05-14T00:07:20;5.15;;;3.20;;
36827;SDS011;22766;48.042;11.192;2023-05-14T00:09:46;4.82;;;2.72;;
36827;SDS011;22766;48.042;11.192;2023-05-14T00:12:13;5.00;;;2.40;;
36827;SDS011;22766;48.042;11.192;2023-05-14T00:14:40;4.38;;;2.72;;
36827;SDS011;22766;48.042;11.192;2023-05-14T00:17:06;5.20;;;3.13;;
36827;SDS011;22766;48.042;11.192;2023-05-14T00:19:33;7.57;;;3.05;;
36827;SDS011;22766;48.042;11.192;2023-05-14T00:22:00;4.20;;;2.58;;
36827;SDS011;22766;48.042;11.192;2023-05-14T00:24:26;4.15;;;2.20;;
36827;SDS011;22766;48.042;11.192;2023-05-14T00:26:53;5.22;;;2.78;;
36827;SDS011;22766;48.042;11.192;2023-05-14T00:29:20;3.08;;;2.13;;
36827;SDS011;22766;48.042;11.192;2023-05-14T00:31:46;4.13;;;2.60;;
36827;SDS011;22766;48.042;11.192;2023-05-14T00:34:13;6.32;;;2.30;;
36827;SDS011;22766;48.042;11.192;2023-05-14T00:36:40;4.75;;;2.15;;
36827;SDS011;22766;48.042;11.192;2023-05-14T00:39:06;6.03;;;3.50;;
36827;SDS011;22766;48.042;11.192;2023-05-14T00:41:33;5.63;;;3.00;;
36827;SDS011;22766;48.042;11.192;2023-05-14T00:44:00;5.18;;;2.85;;
36827;SDS011;22766;48.042;11.192;2023-05-14T00:46:27;4.65;;;2.42;;
36827;SDS011;22766;48.042;11.192;2023-05-14T00:48:54;6.20;;;3.38;;
36827;SDS011;22766;48.042;11.192;2023-05-14T00:51:21;5.80;;;2.75;;
36827;SDS011;22766;48.042;11.192;2023-05-14T00:53:48;5.03;;;3.00;;
36827;SDS011;22766;48.042;11.192;2023-05-14T00:56:17;6.78;;;3.40;;
36827;SDS011;22766;48.042;11.192;2023-05-14T00:58:44;7.10;;;3.63;;
36827;SDS011;22766;48.042;11.192;2023-05-14T01:01:11;6.20;;;3.75;;
36827;SDS011;22766;48.042;11.192;2023-05-14T01:03:40;6.90;;;3.97;;
36827;SDS011;22766;48.042;11.192;2023-05-14T01:06:20;8.48;;;4.25;;
36827;SDS011;22766;48.042;11.192;2023-05-14T01:09:24;8.63;;;5.10;;
36827;SDS011;22766;48.042;11.192;2023-05-14T01:12:22;9.77;;;4.90;;
36827;SDS011;22766;48.042;11.192;2023-05-14T01:17:31;9.95;;;5.03;;
36827;SDS011;22766;48.042;11.192;2023-05-14T01:20:03;10.30;;;5.32;;
36827;SDS011;22766;48.042;11.192;2023-05-14T01:22:31;13.55;;;6.20;;
36827;SDS011;22766;48.042;11.192;2023-05-14T01:24:57;11.25;;;6.30;;
36827;SDS011;22766;48.042;11.192;2023-05-14T01:30:15;13.10;;;7.20;;
36827;SDS011;22766;48.042;11.192;2023-05-14T01:32:47;15.95;;;6.88;;
36827;SDS011;22766;48.042;11.192;2023-05-14T01:35:17;11.15;;;5.90;;
36827;SDS011;22766;48.042;11.192;2023-05-14T01:37:45;11.10;;;6.10;;
36827;SDS011;22766;48.042;11.192;2023-05-14T01:40:14;11.75;;;5.75;;
36827;SDS011;22766;48.042;11.192;2023-05-14T01:42:41;12.70;;;6.43;;
36827;SDS011;22766;48.042;11.192;2023-05-14T01:45:09;12.05;;;6.50;;
36827;SDS011;22766;48.042;11.192;2023-05-14T01:47:36;12.15;;;6.85;;
36827;SDS011;22766;48.042;11.192;2023-05-14T01:50:02;15.13;;;7.40;;
36827;SDS011;22766;48.042;11.192;2023-05-14T01:52:29;11.82;;;6.63;;
36827;SDS011;22766;48.042;11.192;2023-05-14T01:54:56;13.07;;;6.63;;
36827;SDS011;22766;48.042;11.192;2023-05-14T01:57:23;11.52;;;6.55;;
36827;SDS011;22766;48.042;11.192;2023-05-14T01:59:50;12.27;;;7.03;;
36827;SDS011;22766;48.042;11.192;2023-05-14T02:02:16;12.35;;;6.80;;
36827;SDS011;22766;48.042;11.192;2023-05-14T02:04:43;9.68;;;5.75;;
36827;SDS011;22766;48.042;11.192;2023-05-14T02:07:10;11.80;;;6.15;;
36827;SDS011;22766;48.042;11.192;2023-05-14T02:09:37;10.63;;;6.30;;
36827;SDS011;22766;48.042;11.192;2023-05-14T02:12:04;12.45;;;6.07;;
36827;SDS011;22766;48.042;11.192;2023-05-14T02:14:31;11.45;;;6.90;;
36827;SDS011;22766;48.042;11.192;2023-05-14T02:16:58;10.70;;;7.13;;
36827;SDS011;22766;48.042;11.192;2023-05-14T02:19:24;11.52;;;7.38;;
36827;SDS011;22766;48.042;11.192;2023-05-14T02:21:51;11.38;;;6.60;;
36827;SDS011;22766;48.042;11.192;2023-05-14T02:24:18;15.13;;;7.40;;
36827;SDS011;22766;48.042;11.192;2023-05-14T02:26:44;11.10;;;6.78;;
36827;SDS011;22766;48.042;11.192;2023-05-14T02:29:11;12.52;;;7.22;;
36827;SDS011;22766;48.042;11.192;2023-05-14T02:31:38;15.55;;;8.25;;
36827;SDS011;22766;48.042;11.192;2023-05-14T02:34:05;13.73;;;8.30;;
36827;SDS011;22766;48.042;11.192;2023-05-14T02:36:32;13.23;;;7.45;;
36827;SDS011;22766;48.042;11.192;2023-05-14T02:38:58;11.25;;;6.60;;
36827;SDS011;22766;48.042;11.192;2023-05-14T02:41:26;14.80;;;7.18;;
36827;SDS011;22766;48.042;11.192;2023-05-14T02:43:53;14.35;;;7.25;;
36827;SDS011;22766;48.042;11.192;2023-05-14T02:46:20;11.18;;;6.80;;
36827;SDS011;22766;48.042;11.192;2023-05-14T02:48:47;12.57;;;7.25;;
36827;SDS011;22766;48.042;11.192;2023-05-14T02:51:13;11.73;;;6.85;;
36827;SDS011;22766;48.042;11.192;2023-05-14T02:53:41;13.05;;;7.90;;
36827;SDS011;22766;48.042;11.192;2023-05-14T02:56:08;13.93;;;8.25;;
36827;SDS011;22766;48.042;11.192;2023-05-14T02:58:34;14.02;;;8.25;;
36827;SDS011;22766;48.042;11.192;2023-05-14T03:01:01;18.02;;;8.80;;
36827;SDS011;22766;48.042;11.192;2023-05-14T03:03:29;16.20;;;8.13;;
36827;SDS011;22766;48.042;11.192;2023-05-14T03:05:56;17.05;;;8.38;;
36827;SDS011;22766;48.042;11.192;2023-05-14T03:08:23;16.80;;;9.43;;
36827;SDS011;22766;48.042;11.192;2023-05-14T03:10:49;17.00;;;9.45;;
36827;SDS011;22766;48.042;11.192;2023-05-14T03:13:16;16.48;;;8.57;;
36827;SDS011;22766;48.042;11.192;2023-05-14T03:15:45;24.10;;;10.10;;
36827;SDS011;22766;48.042;11.192;2023-05-14T03:18:12;27.92;;;9.73;;
36827;SDS011;22766;48.042;11.192;2023-05-14T03:20:39;17.80;;;10.10;;
36827;SDS011;22766;48.042;11.192;2023-05-14T03:23:06;20.65;;;9.57;;
36827;SDS011;22766;48.042;11.192;2023-05-14T03:25:33;21.13;;;11.20;;
36827;SDS011;22766;48.042;11.192;2023-05-14T03:28:00;24.70;;;10.07;;
36827;SDS011;22766;48.042;11.192;2023-05-14T03:30:28;20.65;;;10.50;;
36827;SDS011;22766;48.042;11.192;2023-05-14T03:32:55;19.88;;;9.82;;
36827;SDS011;22766;48.042;11.192;2023-05-14T03:35:22;20.80;;;10.20;;
36827;SDS011;22766;48.042;11.192;2023-05-14T03:37:48;19.83;;;11.10;;
36827;SDS011;22766;48.042;11.192;2023-05-14T03:40:16;20.63;;;10.38;;
36827;SDS011;22766;48.042;11.192;2023-05-14T03:42:42;23.60;;;11.18;;
36827;SDS011;22766;48.042;11.192;2023-05-14T03:45:09;18.60;;;10.52;;
36827;SDS011;22766;48.042;11.192;2023-05-14T03:47:36;21.48;;;10.25;;
36827;SDS011;22766;48.042;11.192;2023-05-14T03:50:04;23.10;;;11.02;;
36827;SDS011;22766;48.042;11.192;2023-05-14T03:52:31;22.30;;;10.75;;
36827;SDS011;22766;48.042;11.192;2023-05-14T03:54:58;19.42;;;10.27;;
36827;SDS011;22766;48.042;11.192;2023-05-14T03:57:25;22.23;;;11.55;;
36827;SDS011;22766;48.042;11.192;2023-05-14T03:59:51;24.02;;;10.88;;
36827;SDS011;22766;48.042;11.192;2023-05-14T04:02:18;19.70;;;10.98;;
36827;SDS011;22766;48.042;11.192;2023-05-14T04:04:45;21.98;;;11.35;;
36827;SDS011;22766;48.042;11.192;2023-05-14T04:07:15;21.85;;;10.40;;
36827;SDS011;22766;48.042;11.192;2023-05-14T04:09:42;24.17;;;11.27;;
36827;SDS011;22766;48.042;11.192;2023-05-14T04:12:10;25.17;;;12.38;;
36827;SDS011;22766;48.042;11.192;2023-05-14T04:14:37;22.02;;;10.82;;
36827;SDS011;22766;48.042;11.192;2023-05-14T04:17:04;20.08;;;10.18;;
36827;SDS011;22766;48.042;11.192;2023-05-14T04:19:30;26.75;;;12.73;;
36827;SDS011;22766;48.042;11.192;2023-05-14T04:21:57;21.10;;;10.75;;
36827;SDS011;22766;48.042;11.192;2023-05-14T04:24:23;18.98;;;10.02;;
36827;SDS011;22766;48.042;11.192;2023-05-14T04:26:50;23.80;;;11.07;;
36827;SDS011;22766;48.042;11.192;2023-05-14T04:29:17;22.52;;;10.85;;
36827;SDS011;22766;48.042;11.192;2023-05-14T04:31:43;18.08;;;9.98;;
36827;SDS011;22766;48.042;11.192;2023-05-14T04:34:10;18.30;;;9.90;;
36827;SDS011;22766;48.042;11.192;2023-05-14T04:36:37;20.48;;;10.07;;
36827;SDS011;22766;48.042;11.192;2023-05-14T04:39:03;20.98;;;11.15;;
36827;SDS011;22766;48.042;11.192;2023-05-14T04:41:31;19.63;;;10.65;;
36827;SDS011;22766;48.042;11.192;2023-05-14T04:43:59;21.58;;;9.50;;
36827;SDS011;22766;48.042;11.192;2023-05-14T04:46:27;23.38;;;10.82;;
36827;SDS011;22766;48.042;11.192;2023-05-14T04:48:54;21.98;;;10.55;;
36827;SDS011;22766;48.042;11.192;2023-05-14T04:51:22;23.48;;;12.02;;
36827;SDS011;22766;48.042;11.192;2023-05-14T04:53:48;25.13;;;12.10;;
36827;SDS011;22766;48.042;11.192;2023-05-14T04:56:15;22.50;;;11.23;;
36827;SDS011;22766;48.042;11.192;2023-05-14T04:58:42;24.98;;;10.85;;
36827;SDS011;22766;48.042;11.192;2023-05-14T05:01:08;22.17;;;10.55;;
36827;SDS011;22766;48.042;11.192;2023-05-14T05:03:35;22.00;;;10.48;;
36827;SDS011;22766;48.042;11.192;2023-05-14T05:06:02;18.92;;;9.88;;
36827;SDS011;22766;48.042;11.192;2023-05-14T05:08:28;24.42;;;10.85;;
36827;SDS011;22766;48.042;11.192;2023-05-14T05:10:55;22.35;;;11.27;;
36827;SDS011;22766;48.042;11.192;2023-05-14T05:13:21;20.95;;;10.88;;
36827;SDS011;22766;48.042;11.192;2023-05-14T05:15:48;22.30;;;9.27;;
36827;SDS011;22766;48.042;11.192;2023-05-14T05:18:15;18.55;;;9.77;;
36827;SDS011;22766;48.042;11.192;2023-05-14T05:20:41;23.83;;;10.75;;
36827;SDS011;22766;48.042;11.192;2023-05-14T05:23:08;20.70;;;11.18;;
36827;SDS011;22766;48.042;11.192;2023-05-14T05:25:34;19.05;;;9.50;;
36827;SDS011;22766;48.042;11.192;2023-05-14T05:28:01;18.70;;;9.50;;
36827;SDS011;22766;48.042;11.192;2023-05-14T05:30:28;19.20;;;9.82;;
36827;SDS011;22766;48.042;11.192;2023-05-14T05:32:55;17.08;;;8.95;;
36827;SDS011;22766;48.042;11.192;2023-05-14T05:35:22;15.05;;;8.50;;
36827;SDS011;22766;48.042;11.192;2023-05-14T05:37:49;17.42;;;9.52;;
36827;SDS011;22766;48.042;11.192;2023-05-14T05:40:16;19.55;;;9.25;;
36827;SDS011;22766;48.042;11.192;2023-05-14T05:42:43;18.10;;;9.10;;
36827;SDS011;22766;48.042;11.192;2023-05-14T05:45:09;15.60;;;8.93;;
36827;SDS011;22766;48.042;11.192;2023-05-14T05:47:36;17.45;;;8.63;;
36827;SDS011;22766;48.042;11.192;2023-05-14T05:50:03;19.02;;;9.05;;
36827;SDS011;22766;48.042;11.192;2023-05-14T05:52:30;14.05;;;7.72;;
36827;SDS011;22766;48.042;11.192;2023-05-14T05:54:57;14.75;;;7.78;;
36827;SDS011;22766;48.042;11.192;2023-05-14T05:57:23;17.83;;;8.82;;
36827;SDS011;22766;48.042;11.192;2023-05-14T05:59:52;16.63;;;8.85;;
36827;SDS011;22766;48.042;11.192;2023-05-14T06:02:19;20.67;;;9.77;;
36827;SDS011;22766;48.042;11.192;2023-05-14T06:04:45;18.25;;;9.43;;
36827;SDS011;22766;48.042;11.192;2023-05-14T06:07:12;17.25;;;9.60;;
36827;SDS011;22766;48.042;11.192;2023-05-14T06:09:38;16.83;;;9.02;;
36827;SDS011;22766;48.042;11.192;2023-05-14T06:12:05;17.88;;;9.43;;
36827;SDS011;22766;48.042;11.192;2023-05-14T06:14:32;20.13;;;9.43;;
36827;SDS011;22766;48.042;11.192;2023-05-14T06:16:59;20.40;;;10.80;;
36827;SDS011;22766;48.042;11.192;2023-05-14T06:19:26;24.52;;;11.00;;
36827;SDS011;22766;48.042;11.192;2023-05-14T06:21:52;18.58;;;9.52;;
36827;SDS011;22766;48.042;11.192;2023-05-14T06:24:19;21.77;;;10.32;;
36827;SDS011;22766;48.042;11.192;2023-05-14T06:26:46;20.67;;;10.15;;
36827;SDS011;22766;48.042;11.192;2023-05-14T06:29:14;18.77;;;10.10;;
36827;SDS011;22766;48.042;11.192;2023-05-14T06:31:41;22.65;;;9.43;;
36827;SDS011;22766;48.042;11.192;2023-05-14T06:34:07;17.85;;;9.20;;
36827;SDS011;22766;48.042;11.192;2023-05-14T06:36:34;18.52;;;9.10;;
36827;SDS011;22766;48.042;11.192;2023-05-14T06:39:01;19.63;;;9.90;;
36827;SDS011;22766;48.042;11.192;2023-05-14T06:41:28;18.60;;;10.07;;
36827;SDS011;22766;48.042;11.192;2023-05-14T06:43:55;18.08;;;10.07;;
36827;SDS011;22766;48.042;11.192;2023-05-14T06:46:22;23.33;;;10.60;;
36827;SDS011;22766;48.042;11.192;2023-05-14T06:48:49;22.10;;;9.35;;
36827;SDS011;22766;48.042;11.192;2023-05-14T06:51:16;19.38;;;8.98;;
36827;SDS011;22766;48.042;11.192;2023-05-14T06:53:42;18.60;;;8.48;;
36827;SDS011;22766;48.042;11.192;2023-05-14T06:56:09;15.45;;;8.30;;
36827;SDS011;22766;48.042;11.192;2023-05-14T06:58:36;16.67;;;8.68;;
36827;SDS011;22766;48.042;11.192;2023-05-14T07:01:02;16.90;;;8.23;;
36827;SDS011;22766;48.042;11.192;2023-05-14T07:03:29;17.92;;;8.63;;
36827;SDS011;22766;48.042;11.192;2023-05-14T07:05:56;20.55;;;8.88;;
36827;SDS011;22766;48.042;11.192;2023-05-14T07:08:23;16.25;;;8.35;;
36827;SDS011;22766;48.042;11.192;2023-05-14T07:10:50;16.45;;;8.93;;
36827;SDS011;22766;48.042;11.192;2023-05-14T07:13:16;17.33;;;7.72;;
36827;SDS011;22766;48.042;11.192;2023-05-14T07:15:43;16.02;;;8.30;;
36827;SDS011;22766;48.042;11.192;2023-05-14T07:18:10;16.77;;;7.57;;
36827;SDS011;22766;48.042;11.192;2023-05-14T07:20:37;15.02;;;7.30;;
36827;SDS011;22766;48.042;11.192;2023-05-14T07:23:03;10.55;;;6.53;;
36827;SDS011;22766;48.042;11.192;2023-05-14T07:25:30;15.18;;;6.80;;
36827;SDS011;22766;48.042;11.192;2023-05-14T07:27:58;16.42;;;8.50;;
36827;SDS011;22766;48.042;11.192;2023-05-14T07:30:24;15.68;;;8.13;;
36827;SDS011;22766;48.042;11.192;2023-05-14T07:32:51;16.65;;;9.10;;
36827;SDS011;22766;48.042;11.192;2023-05-14T07:35:18;17.20;;;8.32;;
36827;SDS011;22766;48.042;11.192;2023-05-14T07:37:45;19.52;;;9.52;;
36827;SDS011;22766;48.042;11.192;2023-05-14T07:40:12;12.75;;;7.53;;
36827;SDS011;22766;48.042;11.192;2023-05-14T07:42:39;16.92;;;7.68;;
36827;SDS011;22766;48.042;11.192;2023-05-14T07:45:06;13.90;;;8.20;;
36827;SDS011;22766;48.042;11.192;2023-05-14T07:47:34;13.35;;;7.22;;
36827;SDS011;22766;48.042;11.192;2023-05-14T07:50:00;15.05;;;6.93;;
36827;SDS011;22766;48.042;11.192;2023-05-14T07:52:27;11.52;;;6.30;;
36827;SDS011;22766;48.042;11.192;2023-05-14T07:54:54;14.52;;;6.95;;
36827;SDS011;22766;48.042;11.192;2023-05-14T07:57:20;13.02;;;6.50;;
36827;SDS011;22766;48.042;11.192;2023-05-14T07:59:47;13.27;;;7.43;;
36827;SDS011;22766;48.042;11.192;2023-05-14T08:02:14;11.95;;;6.75;;
36827;SDS011;22766;48.042;11.192;2023-05-14T08:04:42;11.10;;;5.95;;
36827;SDS011;22766;48.042;11.192;2023-05-14T08:07:09;11.35;;;6.50;;
36827;SDS011;22766;48.042;11.192;2023-05-14T08:09:36;14.52;;;6.88;;
36827;SDS011;22766;48.042;11.192;2023-05-14T08:12:03;14.80;;;7.65;;
36827;SDS011;22766;48.042;11.192;2023-05-14T08:14:30;12.77;;;7.18;;
36827;SDS011;22766;48.042;11.192;2023-05-14T08:16:56;13.95;;;7.25;;
36827;SDS011;22766;48.042;11.192;2023-05-14T08:19:23;12.10;;;6.93;;
36827;SDS011;22766;48.042;11.192;2023-05-14T08:21:50;16.58;;;7.95;;
36827;SDS011;22766;48.042;11.192;2023-05-14T08:24:16;13.32;;;6.85;;
36827;SDS011;22766;48.042;11.192;2023-05-14T08:26:43;15.10;;;7.50;;
36827;SDS011;22766;48.042;11.192;2023-05-14T08:29:10;12.65;;;6.80;;
36827;SDS011;22766;48.042;11.192;2023-05-14T08:31:39;10.25;;;6.15;;
36827;SDS011;22766;48.042;11.192;2023-05-14T08:34:06;10.88;;;6.10;;
36827;SDS011;22766;48.042;11.192;2023-05-14T08:36:33;9.18;;;5.57;;
36827;SDS011;22766;48.042;11.192;2023-05-14T08:38:59;12.02;;;6.47;;
36827;SDS011;22766;48.042;11.192;2023-05-14T08:41:26;10.30;;;5.72;;
36827;SDS011;22766;48.042;11.192;2023-05-14T08:44:00;16.75;;;7.38;;
36827;SDS011;22766;48.042;11.192;2023-05-14T08:46:44;13.77;;;7.50;;
36827;SDS011;22766;48.042;11.192;2023-05-14T08:51:58;12.02;;;6.78;;
36827;SDS011;22766;48.042;11.192;2023-05-14T08:54:25;11.25;;;6.30;;
36827;SDS011;22766;48.042;11.192;2023-05-14T08:56:53;11.43;;;5.07;;
36827;SDS011;22766;48.042;11.192;2023-05-14T08:59:20;9.93;;;6.13;;
36827;SDS011;22766;48.042;11.192;2023-05-14T09:01:47;11.43;;;5.97;;
36827;SDS011;22766;48.042;11.192;2023-05-14T09:04:21;11.27;;;5.72;;
36827;SDS011;22766;48.042;11.192;2023-05-14T09:06:50;11.30;;;6.13;;
36827;SDS011;22766;48.042;11.192;2023-05-14T09:09:19;12.13;;;6.20;;
36827;SDS011;22766;48.042;11.192;2023-05-14T09:11:48;11.48;;;6.38;;
36827;SDS011;22766;48.042;11.192;2023-05-14T09:14:16;9.65;;;5.20;;
36827;SDS011;22766;48.042;11.192;2023-05-14T09:16:44;9.55;;;5.18;;
36827;SDS011;22766;48.042;11.192;2023-05-14T09:19:13;11.13;;;5.90;;
36827;SDS011;22766;48.042;11.192;2023-05-14T09:21:41;11.15;;;5.70;;
36827;SDS011;22766;48.042;11.192;2023-05-14T09:24:17;11.52;;;5.30;;
36827;SDS011;22766;48.042;11.192;2023-05-14T09:26:49;10.70;;;5.53;;
36827;SDS011;22766;48.042;11.192;2023-05-14T09:29:17;10.30;;;5.40;;
36827;SDS011;22766;48.042;11.192;2023-05-14T09:31:43;11.02;;;5.75;;
36827;SDS011;22766;48.042;11.192;2023-05-14T09:34:11;8.45;;;5.47;;
36827;SDS011;22766;48.042;11.192;2023-05-14T09:36:49;14.48;;;6.35;;
36827;SDS011;22766;48.042;11.192;2023-05-14T09:39:21;12.40;;;6.28;;
36827;SDS011;22766;48.042;11.192;2023-05-14T09:41:49;11.73;;;6.15;;
36827;SDS011;22766;48.042;11.192;2023-05-14T09:44:17;12.07;;;7.20;;
36827;SDS011;22766;48.042;11.192;2023-05-14T09:46:44;14.77;;;7.53;;
36827;SDS011;22766;48.042;11.192;2023-05-14T09:49:11;15.40;;;6.65;;
36827;SDS011;22766;48.042;11.192;2023-05-14T09:51:38;14.32;;;7.38;;
36827;SDS011;22766;48.042;11.192;2023-05-14T09:54:05;14.00;;;7.10;;
36827;SDS011;22766;48.042;11.192;2023-05-14T09:56:33;15.57;;;6.65;;
36827;SDS011;22766;48.042;11.192;2023-05-14T09:59:00;12.80;;;7.28;;
36827;SDS011;22766;48.042;11.192;2023-05-14T10:01:28;10.25;;;5.75;;
36827;SDS011;22766;48.042;11.192;2023-05-14T10:03:56;14.38;;;6.65;;
36827;SDS011;22766;48.042;11.192;2023-05-14T10:06:24;11.20;;;5.78;;
36827;SDS011;22766;48.042;11.192;2023-05-14T10:08:56;13.07;;;7.43;;
36827;SDS011;22766;48.042;11.192;2023-05-14T10:11:27;14.32;;;6.50;;
36827;SDS011;22766;48.042;11.192;2023-05-14T10:14:08;13.98;;;6.82;;
36827;SDS011;22766;48.042;11.192;2023-05-14T10:16:47;17.05;;;7.45;;
36827;SDS011;22766;48.042;11.192;2023-05-14T10:19:16;13.88;;;6.72;;
36827;SDS011;22766;48.042;11.192;2023-05-14T10:21:52;12.27;;;7.18;;
36827;SDS011;22766;48.042;11.192;2023-05-14T10:24:22;10.75;;;6.35;;
36827;SDS011;22766;48.042;11.192;2023-05-14T10:26:50;13.95;;;7.40;;
36827;SDS011;22766;48.042;11.192;2023-05-14T10:29:30;15.35;;;8.00;;
36827;SDS011;22766;48.042;11.192;2023-05-14T10:32:00;11.50;;;6.47;;
36827;SDS011;22766;48.042;11.192;2023-05-14T10:37:00;12.43;;;6.57;;
36827;SDS011;22766;48.042;11.192;2023-05-14T10:45:08;15.48;;;7.50;;
36827;SDS011;22766;48.042;11.192;2023-05-14T10:47:37;16.80;;;8.43;;
36827;SDS011;22766;48.042;11.192;2023-05-14T10:50:06;14.75;;;8.02;;
36827;SDS011;22766;48.042;11.192;2023-05-14T10:52:35;14.55;;;7.78;;
36827;SDS011;22766;48.042;11.192;2023-05-14T10:55:05;13.68;;;6.90;;
36827;SDS011;22766;48.042;11.192;2023-05-14T10:57:37;12.27;;;6.32;;
36827;SDS011;22766;48.042;11.192;2023-05-14T11:00:04;12.50;;;6.60;;
36827;SDS011;22766;48.042;11.192;2023-05-14T11:02:42;13.00;;;6.53;;
36827;SDS011;22766;48.042;11.192;2023-05-14T11:05:10;10.85;;;5.40;;
36827;SDS011;22766;48.042;11.192;2023-05-14T11:07:42;10.10;;;5.78;;
36827;SDS011;22766;48.042;11.192;2023-05-14T11:10:17;9.60;;;5.70;;
36827;SDS011;22766;48.042;11.192;2023-05-14T11:12:46;10.75;;;5.80;;
36827;SDS011;22766;48.042;11.192;2023-05-14T11:15:15;9.35;;;5.35;;
36827;SDS011;22766;48.042;11.192;2023-05-14T11:17:44;10.65;;;6.20;;
36827;SDS011;22766;48.042;11.192;2023-05-14T11:20:12;12.40;;;6.95;;
36827;SDS011;22766;48.042;11.192;2023-05-14T11:22:40;10.18;;;5.85;;
36827;SDS011;22766;48.042;11.192;2023-05-14T11:25:08;11.02;;;6.30;;
36827;SDS011;22766;48.042;11.192;2023-05-14T11:27:36;9.52;;;5.90;;
36827;SDS011;22766;48.042;11.192;2023-05-14T11:30:04;9.60;;;6.10;;
36827;SDS011;22766;48.042;11.192;2023-05-14T11:32:31;10.73;;;6.55;;
36827;SDS011;22766;48.042;11.192;2023-05-14T11:34:59;11.07;;;5.85;;
36827;SDS011;22766;48.042;11.192;2023-05-14T11:37:25;8.85;;;5.72;;
36827;SDS011;22766;48.042;11.192;2023-05-14T11:39:53;9.68;;;4.95;;
36827;SDS011;22766;48.042;11.192;2023-05-14T11:42:20;9.93;;;5.70;;
36827;SDS011;22766;48.042;11.192;2023-05-14T11:44:49;8.40;;;5.25;;
36827;SDS011;22766;48.042;11.192;2023-05-14T11:47:20;9.23;;;4.85;;
36827;SDS011;22766;48.042;11.192;2023-05-14T11:49:47;8.38;;;5.03;;
36827;SDS011;22766;48.042;11.192;2023-05-14T11:52:15;8.18;;;5.05;;
36827;SDS011;22766;48.042;11.192;2023-05-14T11:54:45;8.32;;;4.28;;
36827;SDS011;22766;48.042;11.192;2023-05-14T11:57:12;12.40;;;5.03;;
36827;SDS011;22766;48.042;11.192;2023-05-14T11:59:41;9.77;;;5.28;;
36827;SDS011;22766;48.042;11.192;2023-05-14T12:02:09;7.13;;;4.50;;
36827;SDS011;22766;48.042;11.192;2023-05-14T12:04:37;8.57;;;4.65;;
36827;SDS011;22766;48.042;11.192;2023-05-14T12:07:07;7.20;;;4.75;;
36827;SDS011;22766;48.042;11.192;2023-05-14T12:09:42;7.88;;;4.55;;
36827;SDS011;22766;48.042;11.192;2023-05-14T12:12:18;8.75;;;4.28;;
36827;SDS011;22766;48.042;11.192;2023-05-14T12:14:46;8.05;;;4.63;;
36827;SDS011;22766;48.042;11.192;2023-05-14T12:17:15;9.65;;;4.72;;
36827;SDS011;22766;48.042;11.192;2023-05-14T12:19:42;6.88;;;4.35;;
36827;SDS011;22766;48.042;11.192;2023-05-14T12:22:10;6.45;;;4.15;;
36827;SDS011;22766;48.042;11.192;2023-05-14T12:24:38;6.90;;;4.00;;
36827;SDS011;22766;48.042;11.192;2023-05-14T12:27:06;8.65;;;4.68;;
36827;SDS011;22766;48.042;11.192;2023-05-14T12:29:36;7.28;;;4.47;;
36827;SDS011;22766;48.042;11.192;2023-05-14T12:32:07;9.40;;;5.57;;
36827;SDS011;22766;48.042;11.192;2023-05-14T12:34:34;8.32;;;4.20;;
36827;SDS011;22766;48.042;11.192;2023-05-14T12:37:03;7.38;;;4.70;;
36827;SDS011;22766;48.042;11.192;2023-05-14T12:39:31;6.47;;;3.90;;
36827;SDS011;22766;48.042;11.192;2023-05-14T12:41:59;11.18;;;4.25;;
36827;SDS011;22766;48.042;11.192;2023-05-14T12:44:26;6.53;;;4.07;;
36827;SDS011;22766;48.042;11.192;2023-05-14T12:46:53;6.35;;;4.05;;
36827;SDS011;22766;48.042;11.192;2023-05-14T12:49:20;5.57;;;3.65;;
36827;SDS011;22766;48.042;11.192;2023-05-14T12:51:47;6.95;;;3.95;;
36827;SDS011;22766;48.042;11.192;2023-05-14T12:54:15;6.30;;;3.55;;
36827;SDS011;22766;48.042;11.192;2023-05-14T12:56:41;5.18;;;3.28;;
36827;SDS011;22766;48.042;11.192;2023-05-14T12:59:08;4.78;;;3.00;;
36827;SDS011;22766;48.042;11.192;2023-05-14T13:01:36;4.78;;;3.15;;
36827;SDS011;22766;48.042;11.192;2023-05-14T13:04:04;4.32;;;2.90;;
36827;SDS011;22766;48.042;11.192;2023-05-14T13:06:31;5.03;;;3.25;;
36827;SDS011;22766;48.042;11.192;2023-05-14T13:08:58;3.38;;;2.40;;
36827;SDS011;22766;48.042;11.192;2023-05-14T13:11:27;3.58;;;2.28;;
36827;SDS011;22766;48.042;11.192;2023-05-14T13:13:55;4.60;;;2.90;;
36827;SDS011;22766;48.042;11.192;2023-05-14T13:16:22;3.67;;;2.72;;
36827;SDS011;22766;48.042;11.192;2023-05-14T13:18:49;3.65;;;2.30;;
36827;SDS011;22766;48.042;11.192;2023-05-14T13:21:15;3.33;;;2.53;;
36827;SDS011;22766;48.042;11.192;2023-05-14T13:23:42;3.17;;;2.03;;
36827;SDS011;22766;48.042;11.192;2023-05-14T13:26:08;3.15;;;2.25;;
36827;SDS011;22766;48.042;11.192;2023-05-14T13:28:35;3.47;;;2.30;;
36827;SDS011;22766;48.042;11.192;2023-05-14T13:31:06;3.65;;;2.13;;
36827;SDS011;22766;48.042;11.192;2023-05-14T13:33:34;2.35;;;1.80;;
36827;SDS011;22766;48.042;11.192;2023-05-14T13:36:02;3.65;;;2.15;;
36827;SDS011;22766;48.042;11.192;2023-05-14T13:38:30;2.78;;;1.92;;
36827;SDS011;22766;48.042;11.192;2023-05-14T13:40:57;4.22;;;2.00;;
36827;SDS011;22766;48.042;11.192;2023-05-14T13:43:28;4.28;;;2.30;;
36827;SDS011;22766;48.042;11.192;2023-05-14T13:48:25;2.65;;;1.90;;
36827;SDS011;22766;48.042;11.192;2023-05-14T13:50:53;3.63;;;1.70;;
36827;SDS011;22766;48.042;11.192;2023-05-14T13:53:20;3.25;;;1.73;;
36827;SDS011;22766;48.042;11.192;2023-05-14T13:55:48;2.75;;;2.10;;
36827;SDS011;22766;48.042;11.192;2023-05-14T13:58:16;2.90;;;1.73;;
36827;SDS011;22766;48.042;11.192;2023-05-14T14:00:42;2.30;;;1.25;;
36827;SDS011;22766;48.042;11.192;2023-05-14T14:03:09;2.47;;;1.50;;
36827;SDS011;22766;48.042;11.192;2023-05-14T14:05:35;2.10;;;1.60;;
36827;SDS011;22766;48.042;11.192;2023-05-14T14:08:02;2.00;;;1.40;;
36827;SDS011;22766;48.042;11.192;2023-05-14T14:10:48;2.03;;;1.48;;
36827;SDS011;22766;48.042;11.192;2023-05-14T14:13:15;1.63;;;1.40;;
36827;SDS011;22766;48.042;11.192;2023-05-14T14:15:41;2.80;;;1.80;;
36827;SDS011;22766;48.042;11.192;2023-05-14T14:18:09;2.58;;;1.45;;
36827;SDS011;22766;48.042;11.192;2023-05-14T14:20:35;2.55;;;1.73;;
36827;SDS011;22766;48.042;11.192;2023-05-14T14:23:02;2.38;;;1.63;;
36827;SDS011;22766;48.042;11.192;2023-05-14T14:25:29;5.75;;;1.23;;
36827;SDS011;22766;48.042;11.192;2023-05-14T14:27:56;1.77;;;1.23;;
36827;SDS011;22766;48.042;11.192;2023-05-14T14:30:22;2.10;;;1.70;;
36827;SDS011;22766;48.042;11.192;2023-05-14T14:32:49;4.10;;;1.50;;
36827;SDS011;22766;48.042;11.192;2023-05-14T14:35:17;2.28;;;1.50;;
36827;SDS011;22766;48.042;11.192;2023-05-14T14:37:44;2.17;;;1.48;;
36827;SDS011;22766;48.042;11.192;2023-05-14T14:40:16;2.15;;;1.50;;
36827;SDS011;22766;48.042;11.192;2023-05-14T14:42:43;1.98;;;1.33;;
36827;SDS011;22766;48.042;11.192;2023-05-14T14:45:10;1.98;;;1.30;;